Climatologie pour Saint-Brevin les Pins
Jour • Résumé pour juillet 25, 2017 Système :  Métrique    Anglais   Mixte
« - 1 jour
+ 1 jour »
Jour Semaine Mois Année Personnalisé
  Maximum : Minimum : Moyenne :
Température sous abri : 22.6 °C 13.6 °C 18 °C
Point de rosée : 17.8 °C 12.8 °C 15.7 °C
Humidité : 96 % 74 % 86 %
Vitesse du vent : 25.7 km/h 0.0 km/h 7.3 km/h
Rafale : 30.6 km/h - -
Direction :- - WNW
Pression : 1020.2 hPa 1016.1 hPa -
Précipitations : 0.0 mm    
Historical Graphs
 
 
Tableau de données pour juillet 25, 2017
Heure Tempé Pt rosée Pression Vent Vitesse Rafale Humidité Taux pluie (/hr) Soleil
00:00 16.9 °C 15.7 °C 1020.2 hPa WNW 4.8 km/h 11.3 km/h 93 % 0.0 mm 0 W/m2
00:10 16.9 °C 15.8 °C 1019.9 hPa WNW 1.6 km/h 14.5 km/h 93 % 0.0 mm 0 W/m2
00:15 16.9 °C 15.7 °C 1020.2 hPa NNW 1.6 km/h 14.5 km/h 93 % 0.0 mm 0 W/m2
00:20 16.8 °C 15.8 °C 1020.2 hPa NNW 1.6 km/h 9.7 km/h 94 % 0.0 mm 0 W/m2
00:25 16.7 °C 15.7 °C 1019.9 hPa NW 4.8 km/h 9.7 km/h 94 % 0.0 mm 0 W/m2
00:30 16.5 °C 15.5 °C 1019.9 hPa NNW 4.8 km/h 9.7 km/h 94 % 0.0 mm 0 W/m2
00:35 16.6 °C 15.6 °C 1019.9 hPa NW 1.6 km/h 12.9 km/h 94 % 0.0 mm 0 W/m2
00:40 16.8 °C 16.0 °C 1019.9 hPa WNW 8.0 km/h 14.5 km/h 95 % 0.0 mm 0 W/m2
00:45 16.8 °C 15.8 °C 1019.9 hPa WNW 4.8 km/h 14.5 km/h 94 % 0.0 mm 0 W/m2
00:50 16.8 °C 16.0 °C 1019.9 hPa NW 4.8 km/h 11.3 km/h 95 % 0.0 mm 0 W/m2
00:55 16.9 °C 16.1 °C 1019.9 hPa North 6.4 km/h 12.9 km/h 95 % 0.0 mm 0 W/m2
01:00 16.9 °C 16.1 °C 1019.9 hPa NW 4.8 km/h 12.9 km/h 95 % 0.0 mm 0 W/m2
01:05 16.9 °C 16.1 °C 1019.9 hPa WNW 6.4 km/h 11.3 km/h 95 % 0.0 mm 0 W/m2
01:10 16.8 °C 16.0 °C 1019.9 hPa WNW 3.2 km/h 11.3 km/h 95 % 0.0 mm 0 W/m2
01:15 16.8 °C 16.0 °C 1019.9 hPa West 3.2 km/h 11.3 km/h 95 % 0.0 mm 0 W/m2
01:20 16.8 °C 16.0 °C 1019.9 hPa WNW 6.4 km/h 11.3 km/h 95 % 0.0 mm 0 W/m2
01:25 16.7 °C 15.9 °C 1019.9 hPa WNW 11.3 km/h 11.3 km/h 95 % 0.0 mm 0 W/m2
01:30 16.8 °C 16.0 °C 1019.9 hPa WNW 3.2 km/h 11.3 km/h 95 % 0.0 mm 0 W/m2
01:35 16.7 °C 15.9 °C 1019.9 hPa Calm   11.3 km/h 95 % 0.0 mm 0 W/m2
01:40 16.4 °C 15.6 °C 1019.9 hPa NNW 8.0 km/h 9.7 km/h 95 % 0.0 mm 0 W/m2
01:45 16.4 °C 15.8 °C 1019.9 hPa WNW 3.2 km/h 9.7 km/h 96 % 0.0 mm 0 W/m2
01:50 16.4 °C 15.6 °C 1019.9 hPa North 4.8 km/h 9.7 km/h 95 % 0.0 mm 0 W/m2
01:55 16.3 °C 15.5 °C 1019.9 hPa NW 4.8 km/h 9.7 km/h 95 % 0.0 mm 0 W/m2
02:00 16.3 °C 15.6 °C 1019.9 hPa NNW 3.2 km/h 11.3 km/h 96 % 0.0 mm 0 W/m2
02:05 16.1 °C 15.3 °C 1019.9 hPa NW 1.6 km/h 11.3 km/h 95 % 0.0 mm 0 W/m2
02:10 16.2 °C 15.5 °C 1019.9 hPa WNW 4.8 km/h 8.0 km/h 96 % 0.0 mm 0 W/m2
02:15 16.0 °C 15.2 °C 1019.9 hPa North 8.0 km/h 8.0 km/h 95 % 0.0 mm 0 W/m2
02:20 16.0 °C 15.4 °C 1019.9 hPa NNW 3.2 km/h 8.0 km/h 96 % 0.0 mm 0 W/m2
02:25 16.0 °C 15.4 °C 1019.9 hPa NW 3.2 km/h 8.0 km/h 96 % 0.0 mm 0 W/m2
02:30 16.0 °C 15.4 °C 1019.9 hPa NW 4.8 km/h 9.7 km/h 96 % 0.0 mm 0 W/m2
02:35 15.9 °C 15.3 °C 1019.9 hPa NW 8.0 km/h 9.7 km/h 96 % 0.0 mm 0 W/m2
02:40 15.9 °C 15.3 °C 1019.9 hPa North 4.8 km/h 16.1 km/h 96 % 0.0 mm 0 W/m2
02:45 15.8 °C 15.2 °C 1019.9 hPa North 4.8 km/h 16.1 km/h 96 % 0.0 mm 0 W/m2
02:50 15.8 °C 15.2 °C 1019.9 hPa NNW 6.4 km/h 12.9 km/h 96 % 0.0 mm 0 W/m2
02:55 15.8 °C 15.1 °C 1019.9 hPa NNW 4.8 km/h 14.5 km/h 96 % 0.0 mm 0 W/m2
03:00 15.6 °C 15.0 °C 1019.9 hPa NNW 9.7 km/h 16.1 km/h 96 % 0.0 mm 0 W/m2
03:05 15.4 °C 14.8 °C 1019.9 hPa NW 9.7 km/h 16.1 km/h 96 % 0.0 mm 0 W/m2
03:10 15.3 °C 14.7 °C 1019.5 hPa NNW 6.4 km/h 14.5 km/h 96 % 0.0 mm 0 W/m2
03:15 15.2 °C 14.6 °C 1019.5 hPa Calm   14.5 km/h 96 % 0.0 mm 0 W/m2
03:25 14.9 °C 14.1 °C 1019.5 hPa Calm   14.5 km/h 95 % 0.0 mm 0 W/m2
03:30 14.8 °C 14.1 °C 1019.5 hPa NNW 1.6 km/h 11.3 km/h 96 % 0.0 mm 0 W/m2
03:35 14.7 °C 13.9 °C 1019.5 hPa NNW 8.0 km/h 12.9 km/h 95 % 0.0 mm 0 W/m2
03:40 14.6 °C 13.8 °C 1019.5 hPa NNW 3.2 km/h 12.9 km/h 95 % 0.0 mm 0 W/m2
03:45 14.6 °C 13.8 °C 1019.5 hPa NW 3.2 km/h 11.3 km/h 95 % 0.0 mm 0 W/m2
03:50 14.4 °C 13.7 °C 1019.5 hPa WNW 3.2 km/h 11.3 km/h 95 % 0.0 mm 0 W/m2
03:55 14.6 °C 13.9 °C 1019.5 hPa NNE 3.2 km/h 11.3 km/h 96 % 0.0 mm 0 W/m2
04:00 14.6 °C 13.8 °C 1019.2 hPa NNW 4.8 km/h 9.7 km/h 95 % 0.0 mm 0 W/m2
04:05 14.6 °C 13.8 °C 1019.2 hPa NW 4.8 km/h 11.3 km/h 95 % 0.0 mm 0 W/m2
04:10 14.6 °C 13.8 °C 1019.2 hPa WNW 8.0 km/h 12.9 km/h 95 % 0.0 mm 0 W/m2
04:15 14.6 °C 13.8 °C 1019.2 hPa Calm   12.9 km/h 95 % 0.0 mm 0 W/m2
04:20 14.5 °C 13.7 °C 1019.2 hPa WNW 3.2 km/h 11.3 km/h 95 % 0.0 mm 0 W/m2
04:25 14.5 °C 13.5 °C 1019.2 hPa NNW 8.0 km/h 11.3 km/h 94 % 0.0 mm 0 W/m2
04:30 14.6 °C 13.8 °C 1019.2 hPa WNW 3.2 km/h 12.9 km/h 95 % 0.0 mm 0 W/m2
04:35 14.7 °C 13.9 °C 1019.2 hPa West 4.8 km/h 12.9 km/h 95 % 0.0 mm 0 W/m2
04:40 14.7 °C 13.8 °C 1019.2 hPa WNW 6.4 km/h 11.3 km/h 94 % 0.0 mm 0 W/m2
04:45 14.7 °C 13.9 °C 1019.2 hPa NW 8.0 km/h 12.9 km/h 95 % 0.0 mm 0 W/m2
04:50 14.8 °C 13.9 °C 1018.8 hPa NW 6.4 km/h 12.9 km/h 94 % 0.0 mm 0 W/m2
04:55 14.8 °C 13.9 °C 1018.8 hPa WNW 3.2 km/h 12.9 km/h 94 % 0.0 mm 0 W/m2
05:00 14.8 °C 13.8 °C 1018.8 hPa WNW 11.3 km/h 14.5 km/h 94 % 0.0 mm 0 W/m2
05:05 14.8 °C 13.9 °C 1018.8 hPa WNW 1.6 km/h 14.5 km/h 94 % 0.0 mm 0 W/m2
05:10 14.8 °C 13.8 °C 1019.2 hPa NW 8.0 km/h 14.5 km/h 94 % 0.0 mm 0 W/m2
05:15 14.8 °C 13.8 °C 1019.2 hPa NW 8.0 km/h 12.9 km/h 94 % 0.0 mm 0 W/m2
05:20 14.8 °C 13.8 °C 1019.2 hPa WNW 6.4 km/h 12.9 km/h 94 % 0.0 mm 0 W/m2
05:25 14.8 °C 13.7 °C 1019.2 hPa WNW 8.0 km/h 11.3 km/h 93 % 0.0 mm 0 W/m2
05:30 14.8 °C 13.7 °C 1019.2 hPa WNW 3.2 km/h 14.5 km/h 93 % 0.0 mm 0 W/m2
05:35 14.7 °C 13.5 °C 1019.2 hPa West 3.2 km/h 14.5 km/h 93 % 0.0 mm 0 W/m2
05:40 14.6 °C 13.5 °C 1019.2 hPa Calm   14.5 km/h 93 % 0.0 mm 0 W/m2
05:45 14.4 °C 13.3 °C 1019.2 hPa NW 9.7 km/h 12.9 km/h 93 % 0.0 mm 0 W/m2
05:50 14.4 °C 13.4 °C 1019.2 hPa NW 3.2 km/h 9.7 km/h 94 % 0.0 mm 0 W/m2
05:55 14.3 °C 13.3 °C 1019.2 hPa NW 8.0 km/h 9.7 km/h 94 % 0.0 mm 0 W/m2
06:00 14.2 °C 13.2 °C 1018.8 hPa NW 4.8 km/h 9.7 km/h 94 % 0.0 mm 0 W/m2
06:05 14.1 °C 13.2 °C 1019.2 hPa WNW 4.8 km/h 8.0 km/h 94 % 0.0 mm 0 W/m2
06:10 14.1 °C 13.1 °C 1018.8 hPa NW 3.2 km/h 8.0 km/h 94 % 0.0 mm 0 W/m2
06:15 13.9 °C 13.0 °C 1018.8 hPa Calm   8.0 km/h 94 % 0.0 mm 0 W/m2
06:20 14.0 °C 13.0 °C 1018.8 hPa WNW 1.6 km/h 8.0 km/h 94 % 0.0 mm 0 W/m2
06:25 13.9 °C 13.1 °C 1018.8 hPa WNW 6.4 km/h 8.0 km/h 95 % 0.0 mm 0 W/m2
06:30 13.8 °C 13.0 °C 1018.8 hPa WNW 3.2 km/h 6.4 km/h 95 % 0.0 mm 0 W/m2
06:35 13.8 °C 13.0 °C 1018.8 hPa Calm   6.4 km/h 95 % 0.0 mm 0 W/m2
06:40 13.6 °C 12.8 °C 1018.8 hPa WNW 3.2 km/h 9.7 km/h 95 % 0.0 mm 0 W/m2
06:45 13.6 °C 12.8 °C 1018.8 hPa Calm   9.7 km/h 95 % 0.0 mm 5 W/m2
06:50 13.6 °C 12.8 °C 1018.8 hPa Calm   6.4 km/h 95 % 0.0 mm 7 W/m2
06:55 13.6 °C 12.9 °C 1018.8 hPa Calm   8.0 km/h 96 % 0.0 mm 9 W/m2
07:00 13.6 °C 13.0 °C 1018.8 hPa Calm   8.0 km/h 96 % 0.0 mm 14 W/m2
07:05 13.6 °C 13.0 °C 1018.8 hPa WNW 3.2 km/h 4.8 km/h 96 % 0.0 mm 18 W/m2
07:10 13.8 °C 13.2 °C 1018.8 hPa Calm   4.8 km/h 96 % 0.0 mm 21 W/m2
07:15 14.0 °C 13.4 °C 1018.8 hPa WNW 1.6 km/h 6.4 km/h 96 % 0.0 mm 28 W/m2
07:25 14.4 °C 13.8 °C 1018.8 hPa NNW 3.2 km/h 8.0 km/h 96 % 0.0 mm 39 W/m2
07:30 14.4 °C 13.8 °C 1018.8 hPa Calm   8.0 km/h 96 % 0.0 mm 44 W/m2
07:35 14.5 °C 13.9 °C 1019.2 hPa WNW 3.2 km/h 6.4 km/h 96 % 0.0 mm 53 W/m2
07:40 14.7 °C 14.0 °C 1019.2 hPa Calm   6.4 km/h 96 % 0.0 mm 70 W/m2
07:45 14.8 °C 14.2 °C 1018.8 hPa West 1.6 km/h 11.3 km/h 96 % 0.0 mm 62 W/m2
07:50 15.1 °C 14.4 °C 1018.8 hPa WNW 3.2 km/h 11.3 km/h 96 % 0.0 mm 93 W/m2
07:55 15.4 °C 14.8 °C 1019.2 hPa WNW 4.8 km/h 8.0 km/h 96 % 0.0 mm 93 W/m2
08:00 15.6 °C 14.8 °C 1019.2 hPa WNW 3.2 km/h 8.0 km/h 95 % 0.0 mm 100 W/m2
08:05 15.9 °C 15.0 °C 1018.8 hPa Calm   6.4 km/h 94 % 0.0 mm 86 W/m2
08:10 16.1 °C 15.1 °C 1019.2 hPa WNW 4.8 km/h 6.4 km/h 94 % 0.0 mm 63 W/m2
08:15 16.0 °C 14.9 °C 1019.2 hPa NW 4.8 km/h 9.7 km/h 93 % 0.0 mm 62 W/m2
08:20 16.1 °C 14.9 °C 1019.2 hPa Calm   9.7 km/h 93 % 0.0 mm 72 W/m2
08:25 16.3 °C 15.1 °C 1018.8 hPa WNW 1.6 km/h 4.8 km/h 93 % 0.0 mm 81 W/m2
08:30 16.2 °C 14.9 °C 1019.2 hPa Calm   8.0 km/h 92 % 0.0 mm 91 W/m2
08:35 16.4 °C 15.1 °C 1019.2 hPa WNW 3.2 km/h 8.0 km/h 92 % 0.0 mm 90 W/m2
08:40 16.4 °C 15.1 °C 1019.2 hPa NW 4.8 km/h 9.7 km/h 92 % 0.0 mm 104 W/m2
08:45 16.4 °C 15.1 °C 1019.2 hPa Calm   9.7 km/h 92 % 0.0 mm 118 W/m2
08:50 16.5 °C 15.0 °C 1019.2 hPa WNW 6.4 km/h 11.3 km/h 91 % 0.0 mm 116 W/m2
08:55 16.6 °C 15.1 °C 1019.2 hPa NNW 8.0 km/h 12.9 km/h 91 % 0.0 mm 142 W/m2
09:00 16.7 °C 15.1 °C 1019.2 hPa NNW 3.2 km/h 12.9 km/h 90 % 0.0 mm 174 W/m2
09:05 16.9 °C 15.3 °C 1019.2 hPa NNW 8.0 km/h 9.7 km/h 90 % 0.0 mm 186 W/m2
09:10 17.1 °C 15.4 °C 1019.2 hPa West 1.6 km/h 9.7 km/h 90 % 0.0 mm 167 W/m2
09:15 17.3 °C 15.7 °C 1019.2 hPa NW 1.6 km/h 9.7 km/h 90 % 0.0 mm 172 W/m2
09:20 17.3 °C 15.5 °C 1019.2 hPa Calm   8.0 km/h 89 % 0.0 mm 211 W/m2
09:25 17.4 °C 15.4 °C 1019.2 hPa NNE 1.6 km/h 8.0 km/h 88 % 0.0 mm 248 W/m2
09:30 17.7 °C 15.7 °C 1019.2 hPa NNE 3.2 km/h 8.0 km/h 88 % 0.0 mm 181 W/m2
09:35 17.8 °C 15.6 °C 1019.2 hPa NW 4.8 km/h 9.7 km/h 87 % 0.0 mm 285 W/m2
09:40 18.2 °C 15.8 °C 1019.2 hPa WNW 3.2 km/h 9.7 km/h 86 % 0.0 mm 225 W/m2
09:45 18.1 °C 15.4 °C 1019.2 hPa NNW 3.2 km/h 11.3 km/h 84 % 0.0 mm 155 W/m2
09:50 18.1 °C 15.9 °C 1019.2 hPa NNW 4.8 km/h 11.3 km/h 87 % 0.0 mm 526 W/m2
09:55 18.2 °C 15.5 °C 1019.2 hPa NW 4.8 km/h 12.9 km/h 84 % 0.0 mm 580 W/m2
10:00 18.7 °C 15.6 °C 1019.2 hPa North 8.0 km/h 12.9 km/h 82 % 0.0 mm 399 W/m2
10:05 18.7 °C 15.6 °C 1019.2 hPa WNW 1.6 km/h 12.9 km/h 82 % 0.0 mm 510 W/m2
10:10 19.4 °C 16.7 °C 1019.2 hPa Calm   9.7 km/h 84 % 0.0 mm 631 W/m2
10:20 19.2 °C 15.4 °C 1018.8 hPa West 6.4 km/h 12.9 km/h 79 % 0.0 mm 613 W/m2
10:25 19.2 °C 15.6 °C 1018.8 hPa WNW 3.2 km/h 11.3 km/h 80 % 0.0 mm 258 W/m2
10:30 19.4 °C 15.8 °C 1019.2 hPa WSW 1.6 km/h 11.3 km/h 80 % 0.0 mm 294 W/m2
10:35 19.1 °C 15.6 °C 1018.8 hPa WNW 8.0 km/h 11.3 km/h 80 % 0.0 mm 232 W/m2
10:40 19.2 °C 15.7 °C 1018.8 hPa NW 9.7 km/h 11.3 km/h 80 % 0.0 mm 664 W/m2
10:45 20.1 °C 16.3 °C 1018.8 hPa WNW 3.2 km/h 14.5 km/h 79 % 0.0 mm 689 W/m2
10:50 19.8 °C 15.7 °C 1018.8 hPa NNW 6.4 km/h 14.5 km/h 77 % 0.0 mm 417 W/m2
10:55 20.3 °C 16.1 °C 1018.8 hPa Calm   11.3 km/h 77 % 0.0 mm 763 W/m2
11:00 20.8 °C 16.0 °C 1018.8 hPa WNW 8.0 km/h 14.5 km/h 74 % 0.0 mm 606 W/m2
11:05 20.0 °C 15.8 °C 1018.8 hPa NW 6.4 km/h 14.5 km/h 77 % 0.0 mm 745 W/m2
11:10 20.7 °C 15.9 °C 1018.8 hPa WNW 11.3 km/h 14.5 km/h 74 % 0.0 mm 844 W/m2
11:15 20.4 °C 16.3 °C 1018.5 hPa WNW 8.0 km/h 14.5 km/h 77 % 0.0 mm 403 W/m2
11:20 20.4 °C 16.2 °C 1018.5 hPa WSW 12.9 km/h 16.1 km/h 77 % 0.0 mm 338 W/m2
11:25 19.9 °C 15.7 °C 1018.8 hPa West 8.0 km/h 17.7 km/h 77 % 0.0 mm 243 W/m2
11:30 19.3 °C 15.8 °C 1018.8 hPa West 8.0 km/h 17.7 km/h 80 % 0.0 mm 216 W/m2
11:40 19.4 °C 15.7 °C 1018.8 hPa West 17.7 km/h 19.3 km/h 79 % 0.0 mm 311 W/m2
11:45 19.7 °C 15.9 °C 1018.5 hPa NW 14.5 km/h 19.3 km/h 79 % 0.0 mm 297 W/m2
11:50 19.7 °C 16.2 °C 1018.8 hPa West 4.8 km/h 17.7 km/h 80 % 0.0 mm 218 W/m2
11:55 19.4 °C 16.0 °C 1018.8 hPa WSW 4.8 km/h 16.1 km/h 81 % 0.0 mm 339 W/m2
12:00 19.7 °C 15.9 °C 1018.5 hPa WNW 12.9 km/h 17.7 km/h 79 % 0.0 mm 309 W/m2
12:05 19.8 °C 16.0 °C 1018.5 hPa West 4.8 km/h 20.9 km/h 79 % 0.0 mm 218 W/m2
12:10 20.3 °C 16.8 °C 1018.5 hPa WNW 3.2 km/h 20.9 km/h 80 % 0.0 mm 886 W/m2
12:15 20.8 °C 16.2 °C 1018.5 hPa WNW 6.4 km/h 24.1 km/h 75 % 0.0 mm 406 W/m2
12:20 20.5 °C 16.1 °C 1018.5 hPa West 9.7 km/h 24.1 km/h 76 % 0.0 mm 322 W/m2
12:30 21.4 °C 16.8 °C 1018.5 hPa West 9.7 km/h 19.3 km/h 75 % 0.0 mm 348 W/m2
12:35 20.6 °C 16.2 °C 1018.5 hPa NW 8.0 km/h 17.7 km/h 76 % 0.0 mm 253 W/m2
12:40 21.0 °C 17.4 °C 1018.5 hPa NW 12.9 km/h 17.7 km/h 80 % 0.0 mm 1055 W/m2
12:45 21.1 °C 16.5 °C 1018.5 hPa West 12.9 km/h 19.3 km/h 75 % 0.0 mm 283 W/m2
12:50 20.8 °C 16.4 °C 1018.5 hPa WNW 12.9 km/h 20.9 km/h 76 % 0.0 mm 345 W/m2
12:55 20.7 °C 16.7 °C 1018.5 hPa WNW 8.0 km/h 20.9 km/h 78 % 0.0 mm 332 W/m2
13:00 20.5 °C 16.7 °C 1018.5 hPa West 12.9 km/h 20.9 km/h 79 % 0.0 mm 367 W/m2
13:05 20.8 °C 16.8 °C 1018.5 hPa WSW 11.3 km/h 22.5 km/h 78 % 0.0 mm 332 W/m2
13:10 20.9 °C 16.8 °C 1018.5 hPa WSW 8.0 km/h 22.5 km/h 77 % 0.0 mm 1095 W/m2
13:15 21.1 °C 16.5 °C 1018.5 hPa WNW 8.0 km/h 27.4 km/h 75 % 0.0 mm 318 W/m2
13:20 20.8 °C 16.9 °C 1018.5 hPa WSW 9.7 km/h 27.4 km/h 78 % 0.0 mm 336 W/m2
13:25 20.6 °C 16.8 °C 1018.5 hPa West 3.2 km/h 17.7 km/h 79 % 0.0 mm 316 W/m2
13:30 20.4 °C 16.6 °C 1018.5 hPa West 4.8 km/h 19.3 km/h 79 % 0.0 mm 369 W/m2
13:35 20.7 °C 17.3 °C 1018.5 hPa WSW 11.3 km/h 19.3 km/h 81 % 0.0 mm 397 W/m2
13:40 20.8 °C 17.0 °C 1018.2 hPa WSW 8.0 km/h 20.9 km/h 79 % 0.0 mm 373 W/m2
13:45 21.7 °C 17.5 °C 1018.2 hPa WNW 4.8 km/h 20.9 km/h 77 % 0.0 mm 373 W/m2
13:50 21.8 °C 17.4 °C 1018.5 hPa WNW 4.8 km/h 25.7 km/h 76 % 0.0 mm 1013 W/m2
13:55 21.3 °C 17.1 °C 1018.5 hPa West 19.3 km/h 25.7 km/h 77 % 0.0 mm 381 W/m2
14:00 21.2 °C 17.4 °C 1018.2 hPa WNW 14.5 km/h 20.9 km/h 79 % 0.0 mm 241 W/m2
14:05 21.1 °C 17.1 °C 1018.2 hPa WSW 16.1 km/h 22.5 km/h 78 % 0.0 mm 362 W/m2
14:10 21.3 °C 17.1 °C 1018.2 hPa SW 9.7 km/h 24.1 km/h 77 % 0.0 mm 972 W/m2
14:15 21.4 °C 17.2 °C 1018.2 hPa West 11.3 km/h 25.7 km/h 77 % 0.0 mm 981 W/m2
14:20 21.1 °C 17.1 °C 1018.2 hPa West 16.1 km/h 25.7 km/h 78 % 0.0 mm 828 W/m2
14:25 21.3 °C 17.5 °C 1018.2 hPa WNW 16.1 km/h 25.7 km/h 79 % 0.0 mm 949 W/m2
14:30 20.9 °C 17.0 °C 1018.2 hPa WNW 11.3 km/h 24.1 km/h 78 % 0.0 mm 923 W/m2
14:35 21.4 °C 17.4 °C 1018.2 hPa WNW 4.8 km/h 24.1 km/h 78 % 0.0 mm 990 W/m2
14:40 20.8 °C 17.1 °C 1018.2 hPa West 22.5 km/h 24.1 km/h 79 % 0.0 mm 963 W/m2
14:45 21.8 °C 17.8 °C 1017.8 hPa WNW 14.5 km/h 22.5 km/h 78 % 0.0 mm 1053 W/m2
14:50 22.1 °C 17.4 °C 1017.8 hPa WNW 24.1 km/h 24.1 km/h 75 % 0.0 mm 1058 W/m2
14:55 20.6 °C 16.4 °C 1017.8 hPa WNW 6.4 km/h 25.7 km/h 77 % 0.0 mm 211 W/m2
15:00 20.1 °C 16.9 °C 1017.8 hPa WNW 9.7 km/h 25.7 km/h 82 % 0.0 mm 914 W/m2
15:05 21.2 °C 17.6 °C 1017.8 hPa WSW 17.7 km/h 20.9 km/h 80 % 0.0 mm 914 W/m2
15:10 21.3 °C 17.1 °C 1017.8 hPa West 6.4 km/h 22.5 km/h 77 % 0.0 mm 561 W/m2
15:15 21.0 °C 17.2 °C 1017.8 hPa West 9.7 km/h 22.5 km/h 79 % 0.0 mm 536 W/m2
15:20 21.6 °C 16.7 °C 1017.8 hPa West 25.7 km/h 25.7 km/h 74 % 0.0 mm 536 W/m2
15:25 21.0 °C 17.0 °C 1017.8 hPa NW 8.0 km/h 25.7 km/h 78 % 0.0 mm 969 W/m2
15:30 21.3 °C 16.7 °C 1017.8 hPa WNW 20.9 km/h 25.7 km/h 75 % 0.0 mm 905 W/m2
15:35 21.1 °C 16.7 °C 1017.8 hPa West 17.7 km/h 29.0 km/h 76 % 0.0 mm 766 W/m2
15:40 21.3 °C 16.5 °C 1017.8 hPa West 4.8 km/h 29.0 km/h 74 % 0.0 mm 828 W/m2
15:45 21.4 °C 16.6 °C 1017.8 hPa West 4.8 km/h 25.7 km/h 74 % 0.0 mm 803 W/m2
15:50 21.9 °C 17.3 °C 1017.5 hPa WNW 12.9 km/h 25.7 km/h 75 % 0.0 mm 833 W/m2
15:55 22.6 °C 17.7 °C 1017.5 hPa WSW 11.3 km/h 24.1 km/h 74 % 0.0 mm 766 W/m2
16:00 21.6 °C 17.0 °C 1017.5 hPa West 20.9 km/h 27.4 km/h 75 % 0.0 mm 821 W/m2
16:05 21.4 °C 17.2 °C 1017.5 hPa West 20.9 km/h 29.0 km/h 77 % 0.0 mm 782 W/m2
16:10 21.9 °C 17.5 °C 1017.5 hPa WNW 14.5 km/h 29.0 km/h 76 % 0.0 mm 772 W/m2
16:15 22.0 °C 17.4 °C 1017.8 hPa West 19.3 km/h 22.5 km/h 75 % 0.0 mm 744 W/m2
16:20 22.0 °C 17.6 °C 1017.5 hPa NW 3.2 km/h 30.6 km/h 76 % 0.0 mm 744 W/m2
16:25 21.6 °C 17.1 °C 1017.5 hPa WSW 20.9 km/h 30.6 km/h 76 % 0.0 mm 729 W/m2
16:30 21.4 °C 17.2 °C 1017.5 hPa West 3.2 km/h 30.6 km/h 77 % 0.0 mm 691 W/m2
16:35 21.3 °C 16.7 °C 1017.5 hPa West 9.7 km/h 30.6 km/h 75 % 0.0 mm 717 W/m2
16:40 21.4 °C 17.2 °C 1017.5 hPa WSW 12.9 km/h 29.0 km/h 77 % 0.0 mm 705 W/m2
16:45 21.6 °C 17.4 °C 1017.5 hPa West 16.1 km/h 27.4 km/h 77 % 0.0 mm 694 W/m2
16:50 21.3 °C 17.1 °C 1017.5 hPa NW 12.9 km/h 27.4 km/h 77 % 0.0 mm 687 W/m2
16:55 21.6 °C 17.2 °C 1017.5 hPa NW 14.5 km/h 24.1 km/h 76 % 0.0 mm 671 W/m2
17:00 21.8 °C 17.4 °C 1017.5 hPa WNW 6.4 km/h 24.1 km/h 76 % 0.0 mm 664 W/m2
17:05 21.6 °C 17.1 °C 1017.2 hPa West 4.8 km/h 22.5 km/h 76 % 0.0 mm 642 W/m2
17:10 21.6 °C 17.2 °C 1017.2 hPa West 12.9 km/h 25.7 km/h 76 % 0.0 mm 629 W/m2
17:15 21.3 °C 17.1 °C 1017.2 hPa WNW 6.4 km/h 25.7 km/h 77 % 0.0 mm 631 W/m2
17:20 21.3 °C 17.3 °C 1017.2 hPa WSW 22.5 km/h 29.0 km/h 78 % 0.0 mm 621 W/m2
17:25 21.1 °C 16.9 °C 1017.2 hPa SW 4.8 km/h 29.0 km/h 77 % 0.0 mm 613 W/m2
17:30 21.0 °C 17.0 °C 1017.2 hPa WNW 11.3 km/h 27.4 km/h 78 % 0.0 mm 592 W/m2
17:35 20.8 °C 16.7 °C 1017.2 hPa NW 12.9 km/h 27.4 km/h 77 % 0.0 mm 596 W/m2
17:40 20.8 °C 16.8 °C 1017.2 hPa WNW 14.5 km/h 27.4 km/h 78 % 0.0 mm 575 W/m2
17:45 20.8 °C 16.9 °C 1017.2 hPa WSW 17.7 km/h 27.4 km/h 78 % 0.0 mm 534 W/m2
17:50 20.7 °C 16.9 °C 1017.2 hPa WSW 9.7 km/h 22.5 km/h 79 % 0.0 mm 550 W/m2
17:55 21.2 °C 17.0 °C 1017.2 hPa West 9.7 km/h 25.7 km/h 77 % 0.0 mm 540 W/m2
18:00 20.8 °C 16.8 °C 1017.2 hPa WNW 12.9 km/h 29.0 km/h 78 % 0.0 mm 499 W/m2
18:05 21.4 °C 17.4 °C 1017.2 hPa WNW 6.4 km/h 29.0 km/h 78 % 0.0 mm 504 W/m2
18:10 21.1 °C 16.9 °C 1017.2 hPa West 17.7 km/h 24.1 km/h 77 % 0.0 mm 401 W/m2
18:15 20.9 °C 17.3 °C 1016.8 hPa NW 8.0 km/h 25.7 km/h 80 % 0.0 mm 485 W/m2
18:20 20.7 °C 16.7 °C 1016.8 hPa West 14.5 km/h 27.4 km/h 78 % 0.0 mm 459 W/m2
18:25 20.4 °C 16.6 °C 1017.2 hPa NW 6.4 km/h 27.4 km/h 79 % 0.0 mm 352 W/m2
18:30 20.3 °C 16.8 °C 1017.2 hPa WNW 14.5 km/h 25.7 km/h 80 % 0.0 mm 267 W/m2
18:35 20.2 °C 16.6 °C 1017.2 hPa West 20.9 km/h 24.1 km/h 80 % 0.0 mm 406 W/m2
18:40 20.2 °C 16.6 °C 1016.8 hPa West 8.0 km/h 25.7 km/h 80 % 0.0 mm 434 W/m2
18:45 20.4 °C 16.7 °C 1017.2 hPa WSW 4.8 km/h 25.7 km/h 79 % 0.0 mm 406 W/m2
18:50 20.7 °C 17.1 °C 1017.2 hPa NW 8.0 km/h 25.7 km/h 80 % 0.0 mm 267 W/m2
18:55 20.2 °C 16.6 °C 1017.2 hPa West 16.1 km/h 22.5 km/h 80 % 0.0 mm 394 W/m2
19:00 20.3 °C 16.7 °C 1016.8 hPa West 8.0 km/h 22.5 km/h 80 % 0.0 mm 383 W/m2
19:05 20.2 °C 16.6 °C 1016.8 hPa West 9.7 km/h 20.9 km/h 80 % 0.0 mm 360 W/m2
19:10 20.2 °C 16.6 °C 1016.8 hPa WNW 9.7 km/h 22.5 km/h 80 % 0.0 mm 350 W/m2
19:15 20.2 °C 16.5 °C 1016.8 hPa WNW 6.4 km/h 22.5 km/h 79 % 0.0 mm 338 W/m2
19:20 19.8 °C 16.3 °C 1016.8 hPa WNW 16.1 km/h 24.1 km/h 80 % 0.0 mm 241 W/m2
19:25 19.6 °C 16.2 °C 1017.2 hPa WNW 9.7 km/h 24.1 km/h 81 % 0.0 mm 236 W/m2
19:30 19.4 °C 16.3 °C 1017.2 hPa WNW 14.5 km/h 22.5 km/h 82 % 0.0 mm 279 W/m2
19:35 19.3 °C 16.3 °C 1016.8 hPa NW 11.3 km/h 22.5 km/h 83 % 0.0 mm 285 W/m2
19:40 19.3 °C 16.3 °C 1016.8 hPa NW 3.2 km/h 22.5 km/h 83 % 0.0 mm 265 W/m2
19:45 19.3 °C 16.4 °C 1016.8 hPa WNW 6.4 km/h 24.1 km/h 83 % 0.0 mm 230 W/m2
19:50 19.2 °C 16.5 °C 1016.8 hPa NW 8.0 km/h 27.4 km/h 84 % 0.0 mm 213 W/m2
19:55 19.3 °C 16.5 °C 1016.8 hPa West 17.7 km/h 27.4 km/h 84 % 0.0 mm 188 W/m2
20:00 19.1 °C 16.1 °C 1016.8 hPa NW 6.4 km/h 24.1 km/h 83 % 0.0 mm 113 W/m2
20:05 18.8 °C 16.1 °C 1016.8 hPa West 8.0 km/h 24.1 km/h 84 % 0.0 mm 139 W/m2
20:10 18.8 °C 16.0 °C 1016.8 hPa West 14.5 km/h 24.1 km/h 84 % 0.0 mm 155 W/m2
20:15 18.8 °C 16.3 °C 1016.5 hPa WNW 8.0 km/h 20.9 km/h 85 % 0.0 mm 127 W/m2
20:20 18.9 °C 16.3 °C 1016.5 hPa WNW 9.7 km/h 19.3 km/h 85 % 0.0 mm 114 W/m2
20:25 18.8 °C 16.2 °C 1016.5 hPa WNW 8.0 km/h 19.3 km/h 85 % 0.0 mm 95 W/m2
20:30 18.7 °C 16.1 °C 1016.5 hPa NW 3.2 km/h 19.3 km/h 85 % 0.0 mm 77 W/m2
20:35 18.6 °C 16.2 °C 1016.5 hPa West 12.9 km/h 19.3 km/h 86 % 0.0 mm 47 W/m2
20:40 18.4 °C 16.0 °C 1016.5 hPa WSW 4.8 km/h 19.3 km/h 86 % 0.0 mm 42 W/m2
20:45 18.3 °C 16.1 °C 1016.5 hPa West 11.3 km/h 19.3 km/h 87 % 0.0 mm 32 W/m2
20:50 18.2 °C 16.0 °C 1016.5 hPa WNW 9.7 km/h 17.7 km/h 87 % 0.0 mm 28 W/m2
20:55 18.1 °C 15.9 °C 1016.5 hPa WNW 8.0 km/h 16.1 km/h 87 % 0.0 mm 28 W/m2
21:00 18.0 °C 15.8 °C 1016.1 hPa WNW 11.3 km/h 16.1 km/h 87 % 0.0 mm 32 W/m2
21:05 17.9 °C 15.9 °C 1016.5 hPa WNW 6.4 km/h 16.1 km/h 88 % 0.0 mm 26 W/m2
21:10 17.9 °C 15.9 °C 1016.5 hPa WNW 4.8 km/h 14.5 km/h 88 % 0.0 mm 23 W/m2
21:15 17.8 °C 15.8 °C 1016.5 hPa WNW 11.3 km/h 16.1 km/h 88 % 0.0 mm 19 W/m2
21:20 17.8 °C 15.8 °C 1016.5 hPa WNW 8.0 km/h 17.7 km/h 88 % 0.0 mm 14 W/m2
21:25 17.7 °C 15.7 °C 1016.5 hPa NW 11.3 km/h 17.7 km/h 88 % 0.0 mm 11 W/m2
21:30 17.6 °C 15.4 °C 1016.5 hPa NW 6.4 km/h 20.9 km/h 87 % 0.0 mm 9 W/m2
21:35 17.5 °C 15.3 °C 1016.5 hPa West 3.2 km/h 20.9 km/h 87 % 0.0 mm 7 W/m2
21:40 17.4 °C 15.2 °C 1016.5 hPa WNW 6.4 km/h 16.1 km/h 87 % 0.0 mm 7 W/m2
21:45 17.3 °C 15.3 °C 1016.5 hPa Calm   16.1 km/h 88 % 0.0 mm 0 W/m2
21:50 17.2 °C 15.2 °C 1016.5 hPa NNW 3.2 km/h 16.1 km/h 88 % 0.0 mm 0 W/m2
21:55 17.3 °C 15.3 °C 1016.5 hPa West 3.2 km/h 17.7 km/h 88 % 0.0 mm 0 W/m2
22:00 17.3 °C 15.4 °C 1016.5 hPa WNW 3.2 km/h 17.7 km/h 89 % 0.0 mm 0 W/m2
22:05 17.2 °C 15.4 °C 1016.5 hPa WNW 6.4 km/h 14.5 km/h 89 % 0.0 mm 0 W/m2
22:10 17.3 °C 15.4 °C 1016.5 hPa NW 12.9 km/h 14.5 km/h 89 % 0.0 mm 0 W/m2
22:15 17.2 °C 15.4 °C 1016.5 hPa WNW 14.5 km/h 16.1 km/h 89 % 0.0 mm 0 W/m2
22:20 17.2 °C 15.6 °C 1016.5 hPa WNW 6.4 km/h 16.1 km/h 90 % 0.0 mm 0 W/m2
22:25 17.1 °C 15.5 °C 1016.5 hPa WNW 9.7 km/h 14.5 km/h 90 % 0.0 mm 0 W/m2
22:30 17.1 °C 15.6 °C 1016.5 hPa West 3.2 km/h 14.5 km/h 91 % 0.0 mm 0 W/m2
22:35 17.1 °C 15.6 °C 1016.5 hPa West 6.4 km/h 16.1 km/h 91 % 0.0 mm 0 W/m2
22:40 17.1 °C 15.5 °C 1016.5 hPa WNW 4.8 km/h 16.1 km/h 90 % 0.0 mm 0 W/m2
22:45 17.1 °C 15.6 °C 1016.5 hPa NW 12.9 km/h 14.5 km/h 91 % 0.0 mm 0 W/m2
22:50 17.0 °C 15.3 °C 1016.5 hPa WNW 6.4 km/h 14.5 km/h 90 % 0.0 mm 0 W/m2
22:55 17.0 °C 15.3 °C 1016.8 hPa WNW 6.4 km/h 16.1 km/h 90 % 0.0 mm 0 W/m2
23:00 17.0 °C 15.3 °C 1016.8 hPa NW 9.7 km/h 16.1 km/h 90 % 0.0 mm 0 W/m2
23:05 17.0 °C 15.5 °C 1016.5 hPa West 6.4 km/h 14.5 km/h 91 % 0.0 mm 0 W/m2
23:15 17.1 °C 15.6 °C 1016.5 hPa WNW 9.7 km/h 16.1 km/h 91 % 0.0 mm 0 W/m2
23:20 17.1 °C 15.6 °C 1016.5 hPa West 4.8 km/h 16.1 km/h 91 % 0.0 mm 0 W/m2
23:25 17.1 °C 15.6 °C 1016.5 hPa WNW 1.6 km/h 16.1 km/h 91 % 0.0 mm 0 W/m2
23:30 17.2 °C 15.7 °C 1016.5 hPa West 4.8 km/h 16.1 km/h 91 % 0.0 mm 0 W/m2
23:35 17.2 °C 15.7 °C 1016.5 hPa NW 4.8 km/h 17.7 km/h 91 % 0.0 mm 0 W/m2
23:40 17.3 °C 15.8 °C 1016.5 hPa NW 9.7 km/h 19.3 km/h 91 % 0.0 mm 0 W/m2
23:45 17.4 °C 15.7 °C 1016.5 hPa WNW 4.8 km/h 19.3 km/h 90 % 0.0 mm 0 W/m2
23:50 17.3 °C 15.6 °C 1016.5 hPa West 9.7 km/h 19.3 km/h 90 % 0.0 mm 0 W/m2
23:55 17.3 °C 15.6 °C 1016.5 hPa WNW 8.0 km/h 19.3 km/h 90 % 0.0 mm 0 W/m2
Avec l'autorisation de Weather Underground - 1.75 mb